Time;durP1;ratioP1;P1;durP2;ratioP2;P2;SDS_P1;SDS_P2;PMS_P1;PMS_P2;Temp;Humidity;BMP_temperature;BMP_pressure;BME280_temperature;BME280_humidity;BME280_pressure;Samples;Min_cycle;Max_cycle;Signal;HPM_P1;HPM_P2
2023/01/17 00:02:19;;;;;;;10.48;5.60;;;4.30;99.90;;;;;;5082573;28;20094;-74
2023/01/17 00:10:23;;;;;;;10.20;5.72;;;4.30;99.90;;;;;;5083663;28;20074;-74
2023/01/17 00:13:02;;;;;;;10.50;6.22;;;4.30;99.90;;;;;;5081931;28;20028;-74
2023/01/17 00:15:29;;;;;;;11.93;5.80;;;4.30;99.90;;;;;;5082011;28;20027;-75
2023/01/17 00:17:55;;;;;;;11.65;6.90;;;4.30;99.90;;;;;;5082348;28;20032;-75
2023/01/17 00:26:19;;;;;;;15.10;7.47;;;4.30;99.90;;;;;;5075794;28;20405;-72
2023/01/17 01:35:53;;;;;;;34.42;16.08;;;4.50;99.90;;;;;;5081894;28;20039;-70
2023/01/17 01:38:22;;;;;;;22.45;10.30;;;4.50;99.90;;;;;;5081600;28;20013;-73
2023/01/17 01:40:55;;;;;;;20.23;10.02;;;4.40;99.90;;;;;;5081867;28;20028;-73
2023/01/17 01:43:48;;;;;;;17.58;8.05;;;4.30;99.90;;;;;;5080666;28;20021;-71
2023/01/17 01:46:19;;;;;;;17.35;8.50;;;4.20;99.90;;;;;;5082404;28;20028;-70
2023/01/17 01:49:10;;;;;;;16.67;7.90;;;4.10;99.90;;;;;;5080708;28;20076;-72
2023/01/17 01:51:44;;;;;;;17.65;7.60;;;4.00;99.90;;;;;;5080268;28;20727;-73
2023/01/17 01:54:14;;;;;;;;;;;4.00;99.90;;;;;;5078837;28;20040;-70
2023/01/17 01:56:40;;;;;;;18.05;7.95;;;3.90;99.90;;;;;;5081324;28;19977;-70
2023/01/17 01:59:10;;;;;;;20.30;9.52;;;3.90;99.90;;;;;;5079602;28;20025;-70
2023/01/17 02:01:36;;;;;;;20.92;9.68;;;3.80;99.90;;;;;;5079761;28;20047;-71
2023/01/17 02:04:03;;;;;;;22.30;9.43;;;3.80;99.90;;;;;;5080241;28;20036;-73
2023/01/17 02:06:36;;;;;;;24.23;9.95;;;3.80;99.90;;;;;;5081686;28;20020;-71
2023/01/17 02:09:08;;;;;;;22.13;9.73;;;3.80;99.90;;;;;;5081398;28;20619;-71
2023/01/17 02:11:36;;;;;;;27.13;11.60;;;3.80;99.90;;;;;;5081433;28;20127;-72
2023/01/17 02:14:05;;;;;;;26.02;11.63;;;3.80;99.90;;;;;;5081542;28;20355;-70
2023/01/17 02:16:49;;;;;;;23.85;10.70;;;3.80;99.90;;;;;;5081046;28;20029;-71
2023/01/17 02:19:42;;;;;;;23.80;11.05;;;3.70;99.90;;;;;;5079430;28;20028;-71
2023/01/17 02:22:34;;;;;;;25.08;10.52;;;3.70;99.90;;;;;;5078824;28;20135;-70
2023/01/17 02:25:11;;;;;;;29.13;11.65;;;3.70;99.90;;;;;;5080069;28;20086;-70
2023/01/17 02:27:56;;;;;;;27.42;11.80;;;3.80;99.90;;;;;;5080715;28;20028;-70
2023/01/17 02:30:31;;;;;;;29.02;10.93;;;3.70;99.90;;;;;;5079916;28;20478;-72
2023/01/17 02:33:03;;;;;;;27.13;10.75;;;3.70;99.90;;;;;;5080187;28;20055;-71
2023/01/17 02:35:31;;;;;;;24.00;10.13;;;3.80;99.90;;;;;;5081344;28;20024;-69
2023/01/17 02:38:10;;;;;;;24.63;11.43;;;3.70;99.90;;;;;;5080862;28;20021;-70
2023/01/17 02:40:39;;;;;;;24.13;10.82;;;3.70;99.90;;;;;;5081216;28;20028;-73
2023/01/17 02:43:10;;;;;;;21.33;9.38;;;3.70;99.90;;;;;;5082310;28;20119;-72
2023/01/17 02:45:37;;;;;;;21.85;9.57;;;3.70;99.90;;;;;;5085490;28;20028;-72
2023/01/17 02:48:06;;;;;;;21.25;9.73;;;3.70;99.90;;;;;;5085311;28;20059;-71
2023/01/17 02:50:55;;;;;;;20.33;9.68;;;3.70;99.90;;;;;;5085141;28;20024;-71
2023/01/17 02:53:32;;;;;;;20.85;8.77;;;3.70;99.90;;;;;;5086470;28;20059;-71
2023/01/17 02:56:07;;;;;;;20.05;8.45;;;3.70;99.90;;;;;;5084906;28;20044;-72
2023/01/17 02:58:44;;;;;;;18.77;9.18;;;3.70;99.90;;;;;;5084866;28;20048;-71
2023/01/17 03:01:48;;;;;;;19.35;8.57;;;3.70;99.90;;;;;;5083549;28;20036;-71
2023/01/17 03:04:19;;;;;;;16.30;7.35;;;3.80;99.90;;;;;;5083806;28;20120;-72
2023/01/17 03:06:51;;;;;;;18.95;8.35;;;3.90;99.90;;;;;;5084816;28;20020;-72
2023/01/17 03:09:19;;;;;;;18.52;7.47;;;3.80;99.90;;;;;;5083356;28;20028;-70
2023/01/17 03:11:45;;;;;;;16.58;7.40;;;3.80;99.90;;;;;;5083224;28;20020;-69
2023/01/17 03:14:11;;;;;;;15.25;7.55;;;3.80;99.90;;;;;;5084714;28;20077;-70
2023/01/17 03:16:37;;;;;;;16.60;6.18;;;3.90;99.90;;;;;;5084713;28;20020;-71
2023/01/17 03:19:05;;;;;;;13.75;6.30;;;3.80;99.90;;;;;;5084882;28;20035;-70
2023/01/17 03:21:31;;;;;;;13.85;6.13;;;3.80;99.90;;;;;;5082752;28;20123;-71
2023/01/17 03:23:57;;;;;;;15.55;5.80;;;3.80;99.90;;;;;;5083361;28;20044;-69
2023/01/17 03:26:22;;;;;;;10.93;4.93;;;3.80;99.90;;;;;;5084865;28;20025;-71
2023/01/17 03:28:49;;;;;;;10.32;5.10;;;3.80;99.90;;;;;;5084546;28;20028;-70
2023/01/17 03:31:16;;;;;;;7.53;3.70;;;3.80;99.90;;;;;;5084520;28;20025;-70
2023/01/17 03:33:42;;;;;;;9.80;4.13;;;3.80;99.90;;;;;;5083931;28;20442;-72
2023/01/17 03:36:08;;;;;;;5.43;3.03;;;3.70;99.90;;;;;;5084578;28;20612;-71
2023/01/17 03:38:33;;;;;;;7.07;2.80;;;3.70;99.90;;;;;;5082807;28;20039;-73
2023/01/17 03:40:59;;;;;;;3.50;2.20;;;3.80;99.90;;;;;;5082546;28;20038;-70
2023/01/17 03:43:25;;;;;;;5.50;2.75;;;3.70;99.90;;;;;;5082932;28;20021;-70
2023/01/17 03:45:53;;;;;;;4.93;2.28;;;3.70;99.90;;;;;;5084065;28;20052;-70
2023/01/17 03:48:19;;;;;;;3.13;1.60;;;3.60;99.90;;;;;;5083879;28;20021;-73
2023/01/17 03:50:52;;;;;;;6.22;2.08;;;3.60;99.90;;;;;;5082784;28;20033;-70
2023/01/17 03:53:18;;;;;;;1.67;1.27;;;3.60;99.90;;;;;;5083751;28;20086;-77
2023/01/17 03:55:47;;;;;;;3.75;2.10;;;3.60;99.90;;;;;;5082707;28;20500;-71
2023/01/17 03:58:13;;;;;;;3.55;2.13;;;3.60;99.90;;;;;;5082308;28;20446;-72
2023/01/17 04:00:38;;;;;;;6.22;2.10;;;3.60;99.90;;;;;;5082484;28;20048;-71
2023/01/17 04:03:04;;;;;;;3.38;1.98;;;3.60;99.90;;;;;;5081823;28;20024;-72
2023/01/17 04:05:30;;;;;;;5.00;1.60;;;3.60;99.90;;;;;;5083550;28;20025;-72
2023/01/17 04:07:55;;;;;;;5.30;1.58;;;3.60;99.90;;;;;;5083552;28;20062;-74
2023/01/17 04:10:21;;;;;;;4.30;1.35;;;3.60;99.90;;;;;;5082623;28;20480;-71
2023/01/17 04:12:47;;;;;;;2.70;0.95;;;3.50;99.90;;;;;;5083903;28;20096;-71
2023/01/17 04:15:13;;;;;;;1.33;0.50;;;3.50;99.90;;;;;;5082496;28;20028;-71
2023/01/17 04:17:39;;;;;;;3.78;0.57;;;3.50;99.90;;;;;;5083507;28;20027;-71
2023/01/17 04:20:05;;;;;;;3.42;0.40;;;3.40;99.90;;;;;;5082304;28;20084;-68
2023/01/17 04:22:30;;;;;;;3.75;0.30;;;3.40;99.90;;;;;;5083101;28;20060;-70
2023/01/17 04:24:59;;;;;;;2.13;0.40;;;3.40;99.90;;;;;;5081530;28;20093;-71
2023/01/17 04:27:24;;;;;;;1.80;0.32;;;3.30;99.90;;;;;;5082841;28;20099;-73
2023/01/17 04:29:50;;;;;;;1.67;0.43;;;3.30;99.90;;;;;;5083495;28;20028;-72
2023/01/17 04:32:16;;;;;;;1.60;0.30;;;3.30;99.90;;;;;;5082082;28;20443;-71
2023/01/17 04:34:42;;;;;;;7.55;0.65;;;3.30;99.90;;;;;;5081886;28;20024;-73
2023/01/17 04:37:09;;;;;;;5.10;0.35;;;3.20;99.90;;;;;;5081859;28;20021;-69
2023/01/17 04:39:34;;;;;;;1.70;0.50;;;3.20;99.90;;;;;;5081816;28;20029;-71
2023/01/17 04:42:00;;;;;;;2.55;0.55;;;3.20;99.90;;;;;;5081559;28;20063;-71
2023/01/17 04:44:25;;;;;;;3.72;0.43;;;3.20;99.90;;;;;;5081700;28;20477;-72
2023/01/17 04:46:51;;;;;;;6.65;0.68;;;3.20;99.90;;;;;;5083401;28;20017;-73
2023/01/17 04:49:16;;;;;;;5.07;0.73;;;3.10;99.90;;;;;;5083178;28;20052;-70
2023/01/17 04:51:42;;;;;;;5.25;0.60;;;3.20;99.90;;;;;;5082974;28;20021;-70
2023/01/17 04:54:08;;;;;;;6.05;0.80;;;3.20;99.90;;;;;;5081048;28;20332;-69
2023/01/17 04:56:33;;;;;;;8.55;0.88;;;3.20;99.90;;;;;;5082725;28;20076;-69
2023/01/17 04:58:59;;;;;;;4.78;0.88;;;3.10;99.90;;;;;;5082944;28;20032;-71
2023/01/17 05:01:24;;;;;;;9.68;1.08;;;3.10;99.90;;;;;;5082732;28;20462;-72
2023/01/17 05:03:50;;;;;;;2.65;0.43;;;3.20;99.90;;;;;;5080805;28;20048;-71
2023/01/17 05:06:15;;;;;;;10.40;0.63;;;3.20;99.90;;;;;;5082034;28;20032;-71
2023/01/17 05:08:41;;;;;;;7.85;0.60;;;3.20;99.90;;;;;;5082386;28;20501;-71
2023/01/17 05:11:06;;;;;;;10.75;1.00;;;3.20;99.90;;;;;;5081254;28;20054;-71
2023/01/17 05:13:32;;;;;;;8.52;0.60;;;3.20;99.90;;;;;;5081061;28;20025;-71
2023/01/17 05:15:58;;;;;;;7.57;0.90;;;3.20;99.90;;;;;;5082563;28;20025;-72
2023/01/17 05:18:24;;;;;;;6.32;1.13;;;3.20;99.90;;;;;;5082667;28;20020;-70
2023/01/17 05:20:50;;;;;;;9.85;0.90;;;3.20;99.90;;;;;;5080231;28;20049;-72
2023/01/17 05:23:15;;;;;;;8.13;1.13;;;3.20;99.90;;;;;;5081305;28;20025;-70
2023/01/17 05:25:43;;;;;;;8.60;1.33;;;3.20;99.90;;;;;;5081111;28;20028;-73
2023/01/17 05:28:10;;;;;;;9.00;1.10;;;3.20;99.90;;;;;;5078752;28;20025;-70
2023/01/17 05:30:36;;;;;;;9.30;1.17;;;3.20;99.90;;;;;;5075706;28;20155;-70
2023/01/17 05:33:02;;;;;;;10.05;0.98;;;3.10;99.90;;;;;;5078245;28;20060;-73
2023/01/17 05:35:33;;;;;;;9.70;1.02;;;3.20;99.90;;;;;;5081352;28;20076;-70
2023/01/17 05:38:01;;;;;;;3.63;0.98;;;3.20;99.90;;;;;;5073182;28;20036;-70
2023/01/17 05:40:29;;;;;;;10.10;0.90;;;3.20;99.90;;;;;;5078545;28;20033;-71
2023/01/17 05:42:57;;;;;;;14.98;1.45;;;3.20;99.90;;;;;;5078732;28;20088;-71
2023/01/17 05:45:26;;;;;;;8.27;0.88;;;3.20;99.90;;;;;;5078277;28;20084;-69
2023/01/17 05:47:53;;;;;;;11.27;0.90;;;3.20;99.90;;;;;;5080900;28;20029;-69
2023/01/17 05:50:21;;;;;;;8.52;1.67;;;3.20;99.90;;;;;;5081681;28;20084;-72
2023/01/17 05:53:10;;;;;;;10.82;1.13;;;3.20;99.90;;;;;;5081579;28;20017;-70
2023/01/17 05:55:36;;;;;;;12.70;1.65;;;3.20;99.90;;;;;;5081653;28;20050;-70
2023/01/17 05:58:03;;;;;;;9.93;1.23;;;3.20;99.90;;;;;;5080288;28;20104;-74
2023/01/17 06:00:29;;;;;;;4.25;1.10;;;3.20;99.90;;;;;;5080413;28;20024;-71
2023/01/17 06:02:57;;;;;;;7.55;0.90;;;3.20;99.90;;;;;;5081383;28;20092;-71
2023/01/17 06:05:24;;;;;;;12.98;1.25;;;3.20;99.90;;;;;;5077773;28;20101;-72
2023/01/17 06:07:50;;;;;;;6.25;0.98;;;3.20;99.90;;;;;;5079642;28;20461;-72
2023/01/17 06:10:17;;;;;;;9.77;1.17;;;3.20;99.90;;;;;;5075836;28;20029;-69
2023/01/17 06:12:44;;;;;;;16.55;1.50;;;3.20;99.90;;;;;;5080254;28;20811;-70
2023/01/17 06:15:11;;;;;;;8.48;1.05;;;3.20;99.90;;;;;;5079549;28;20033;-71
2023/01/17 06:17:36;;;;;;;6.47;1.05;;;3.20;99.90;;;;;;5078167;28;20030;-71
2023/01/17 06:20:04;;;;;;;6.63;0.93;;;3.20;99.90;;;;;;5081414;28;20060;-69
2023/01/17 06:22:29;;;;;;;8.18;0.80;;;3.20;99.90;;;;;;5080619;28;20059;-72
2023/01/17 06:24:55;;;;;;;8.00;0.82;;;3.10;99.90;;;;;;5075691;28;20036;-69
2023/01/17 06:27:21;;;;;;;5.72;0.70;;;3.00;99.90;;;;;;5077986;28;20409;-70
2023/01/17 06:29:47;;;;;;;6.63;0.70;;;3.00;99.90;;;;;;5078614;28;20025;-70
2023/01/17 06:32:13;;;;;;;10.32;1.25;;;2.90;99.90;;;;;;5080012;28;20025;-71
2023/01/17 06:34:39;;;;;;;8.63;1.35;;;2.90;99.90;;;;;;5081112;28;20020;-70
2023/01/17 06:37:05;;;;;;;9.10;1.35;;;2.90;99.90;;;;;;5078072;28;20028;-70
2023/01/17 06:39:31;;;;;;;4.82;0.98;;;2.90;99.90;;;;;;5080384;28;20028;-70
2023/01/17 06:41:57;;;;;;;9.65;2.13;;;3.00;99.90;;;;;;5081228;28;20037;-73
2023/01/17 06:44:23;;;;;;;4.47;1.45;;;3.00;99.90;;;;;;5081392;28;20055;-73
2023/01/17 06:46:49;;;;;;;10.40;2.55;;;3.00;99.90;;;;;;5081501;28;20056;-72
2023/01/17 06:49:15;;;;;;;8.35;2.10;;;3.00;99.90;;;;;;5078899;28;20032;-72
2023/01/17 06:51:40;;;;;;;13.02;2.13;;;3.00;99.90;;;;;;5079840;28;20520;-69
2023/01/17 06:54:06;;;;;;;9.85;1.75;;;2.90;99.90;;;;;;5079792;28;20021;-72
2023/01/17 06:56:32;;;;;;;8.05;2.05;;;2.90;99.90;;;;;;5078576;28;20025;-71
2023/01/17 06:58:58;;;;;;;9.02;2.10;;;2.80;99.90;;;;;;5079637;28;20031;-71
2023/01/17 07:01:24;;;;;;;8.45;1.75;;;2.80;99.90;;;;;;5079649;28;20100;-72
2023/01/17 07:03:51;;;;;;;11.73;1.85;;;2.70;99.90;;;;;;5081324;28;20032;-73
2023/01/17 07:06:17;;;;;;;8.70;1.70;;;2.70;99.90;;;;;;5081212;28;20072;-72
2023/01/17 07:08:43;;;;;;;5.65;1.60;;;2.70;99.90;;;;;;5080954;28;20025;-72
2023/01/17 07:11:09;;;;;;;11.82;1.30;;;2.70;99.90;;;;;;5079757;28;20093;-71
2023/01/17 07:13:36;;;;;;;21.05;2.10;;;2.70;99.90;;;;;;5081085;28;20055;-71
2023/01/17 07:16:03;;;;;;;8.88;1.23;;;2.70;99.90;;;;;;5081034;28;20032;-70
2023/01/17 07:18:30;;;;;;;9.00;1.48;;;2.70;99.90;;;;;;5079863;28;20052;-72
2023/01/17 07:20:55;;;;;;;10.85;1.10;;;2.70;99.90;;;;;;5080728;28;20519;-70
2023/01/17 07:23:23;;;;;;;4.53;1.10;;;2.70;99.90;;;;;;5077870;28;20071;-72
2023/01/17 07:25:56;;;;;;;6.50;1.70;;;2.70;99.90;;;;;;5080507;28;20114;-74
2023/01/17 07:28:23;;;;;;;5.25;1.23;;;2.60;99.90;;;;;;5078265;28;20032;-71
2023/01/17 07:30:49;;;;;;;11.27;1.33;;;2.60;99.90;;;;;;5084078;28;20040;-68
2023/01/17 07:33:17;;;;;;;7.78;1.10;;;2.60;99.90;;;;;;5083713;28;20084;-71
2023/01/17 07:35:42;;;;;;;5.20;1.00;;;2.60;99.90;;;;;;5082888;28;20033;-72
2023/01/17 07:38:17;;;;;;;11.48;1.10;;;2.50;99.90;;;;;;5082666;28;20031;-72
2023/01/17 07:40:44;;;;;;;10.48;1.30;;;2.50;99.90;;;;;;5083846;28;20024;-70
2023/01/17 07:43:13;;;;;;;10.45;1.70;;;2.50;99.90;;;;;;5083378;28;20348;-69
2023/01/17 07:45:41;;;;;;;9.18;1.10;;;2.50;99.90;;;;;;5082227;28;20028;-70
2023/01/17 07:48:07;;;;;;;7.55;1.55;;;2.50;99.90;;;;;;5084012;28;20016;-72
2023/01/17 07:50:33;;;;;;;12.95;1.70;;;2.50;99.90;;;;;;5083174;28;20045;-72
2023/01/17 07:52:59;;;;;;;10.35;1.60;;;2.60;99.90;;;;;;5082732;28;20036;-71
2023/01/17 07:55:24;;;;;;;6.28;1.15;;;2.50;99.90;;;;;;5078162;28;20060;-71
2023/01/17 07:57:50;;;;;;;16.58;1.90;;;2.50;99.90;;;;;;5080408;28;20024;-70
2023/01/17 08:00:16;;;;;;;8.77;1.85;;;2.50;99.90;;;;;;5083825;28;20020;-72
2023/01/17 08:02:42;;;;;;;7.43;1.17;;;2.50;99.90;;;;;;5080859;28;20052;-72
2023/01/17 08:05:07;;;;;;;5.97;1.42;;;2.50;99.90;;;;;;5083850;28;20024;-71
2023/01/17 08:07:33;;;;;;;5.25;1.83;;;2.50;99.90;;;;;;5082217;28;20056;-71
2023/01/17 08:10:00;;;;;;;18.52;2.30;;;2.50;99.90;;;;;;5082090;28;20806;-71
2023/01/17 08:12:26;;;;;;;6.93;1.40;;;2.50;99.90;;;;;;5080034;28;20089;-72
2023/01/17 08:14:52;;;;;;;10.77;1.98;;;2.50;99.90;;;;;;5082515;28;20389;-70
2023/01/17 08:17:19;;;;;;;10.27;1.88;;;2.50;99.90;;;;;;5081550;28;20017;-70
2023/01/17 08:19:44;;;;;;;9.25;1.40;;;2.50;99.90;;;;;;5083211;28;20037;-70
2023/01/17 08:22:13;;;;;;;12.10;1.73;;;2.70;99.90;;;;;;5081954;28;20063;-72
2023/01/17 08:24:40;;;;;;;8.93;1.25;;;2.90;99.90;;;;;;5079978;28;20036;-71
2023/01/17 08:27:07;;;;;;;5.10;1.00;;;2.90;99.90;;;;;;5082359;28;20047;-73
2023/01/17 08:29:33;;;;;;;6.50;1.08;;;2.80;99.90;;;;;;5083075;28;20047;-71
2023/01/17 08:31:59;;;;;;;9.60;1.80;;;2.80;99.90;;;;;;5083450;28;20088;-71
2023/01/17 08:34:25;;;;;;;13.25;1.48;;;2.70;99.90;;;;;;5082158;28;20024;-72
2023/01/17 08:36:52;;;;;;;7.18;1.50;;;2.70;99.90;;;;;;5082330;28;20039;-70
2023/01/17 08:39:18;;;;;;;8.00;1.35;;;2.60;99.90;;;;;;5081465;28;20512;-71
2023/01/17 08:41:45;;;;;;;11.00;1.55;;;2.60;99.90;;;;;;5079185;28;20101;-70
2023/01/17 08:44:11;;;;;;;10.05;1.38;;;2.60;99.90;;;;;;5080672;28;20515;-71
2023/01/17 08:46:37;;;;;;;7.15;0.77;;;2.80;99.90;;;;;;5081222;28;20040;-69
2023/01/17 08:49:03;;;;;;;6.70;1.20;;;3.00;99.90;;;;;;5079605;28;20102;-71
2023/01/17 08:51:30;;;;;;;5.40;1.10;;;3.30;99.90;;;;;;5075918;28;20413;-72
2023/01/17 08:53:56;;;;;;;9.20;1.63;;;3.60;99.90;;;;;;5080203;28;20086;-71
2023/01/17 08:56:25;;;;;;;11.93;1.17;;;3.80;99.90;;;;;;5080665;28;20029;-71
2023/01/17 08:58:51;;;;;;;6.55;0.93;;;4.00;99.90;;;;;;5081892;28;20073;-72
2023/01/17 09:01:17;;;;;;;9.48;1.38;;;4.10;99.90;;;;;;5078101;28;20127;-72
2023/01/17 09:03:44;;;;;;;5.28;0.93;;;4.20;99.90;;;;;;5080214;28;20074;-69
2023/01/17 09:06:13;;;;;;;7.07;0.98;;;4.50;99.90;;;;;;5082150;28;20056;-69
2023/01/17 09:08:39;;;;;;;10.40;1.20;;;4.80;99.90;;;;;;5078186;28;20743;-71
2023/01/17 09:11:05;;;;;;;7.10;1.17;;;5.00;99.90;;;;;;5078671;28;20028;-70
2023/01/17 09:13:31;;;;;;;5.57;0.93;;;5.00;99.90;;;;;;5081318;28;20029;-69
2023/01/17 09:15:58;;;;;;;5.80;1.17;;;5.00;99.90;;;;;;5080160;28;20050;-72
2023/01/17 09:18:28;;;;;;;6.07;1.40;;;4.90;99.90;;;;;;5081705;28;20461;-70
2023/01/17 09:20:57;;;;;;;5.90;1.10;;;4.70;99.90;;;;;;5080378;28;20057;-71
2023/01/17 09:23:25;;;;;;;4.10;1.20;;;4.60;99.90;;;;;;5082136;28;20036;-71
2023/01/17 09:25:55;;;;;;;11.02;1.25;;;4.50;99.90;;;;;;5081198;28;20027;-72
2023/01/17 09:28:21;;;;;;;10.15;1.27;;;4.60;99.90;;;;;;5081135;28;20025;-70
2023/01/17 09:30:47;;;;;;;2.15;0.90;;;4.50;99.90;;;;;;5080694;28;20044;-72
2023/01/17 09:33:14;;;;;;;11.93;1.05;;;4.40;99.90;;;;;;5080450;28;20114;-71
2023/01/17 09:35:39;;;;;;;9.95;1.13;;;4.40;99.90;;;;;;5078815;28;20058;-72
2023/01/17 09:38:05;;;;;;;14.23;1.38;;;4.50;99.90;;;;;;5080488;28;20044;-71
2023/01/17 09:40:31;;;;;;;7.18;1.08;;;4.50;99.90;;;;;;5080153;28;20084;-72
2023/01/17 09:43:02;;;;;;;14.27;1.40;;;4.70;99.90;;;;;;5079969;28;20067;-72
2023/01/17 09:45:30;;;;;;;5.53;1.23;;;5.00;99.90;;;;;;5079559;28;20091;-74
2023/01/17 09:47:57;;;;;;;2.97;0.80;;;5.40;99.90;;;;;;5081719;28;20076;-70
2023/01/17 09:50:26;;;;;;;12.02;1.38;;;5.80;99.90;;;;;;5080546;28;20025;-69
2023/01/17 09:53:05;;;;;;;4.22;0.55;;;5.90;99.90;;;;;;5081622;28;20269;-71
2023/01/17 09:55:37;;;;;;;5.47;0.80;;;6.20;99.90;;;;;;5080005;28;20120;-73
2023/01/17 09:58:18;;;;;;;6.15;0.98;;;6.30;99.90;;;;;;5096936;28;20060;-72
2023/01/17 10:01:45;;;;;;;9.70;0.80;;;6.60;99.90;;;;;;5081975;28;20031;-71
2023/01/17 10:04:36;;;;;;;4.07;0.70;;;6.80;99.90;;;;;;5002552;28;20033;-72
2023/01/17 10:07:32;;;;;;;3.70;0.85;;;6.90;99.90;;;;;;5019507;28;20129;-73
2023/01/17 10:10:18;;;;;;;7.13;0.80;;;7.00;99.90;;;;;;5067478;28;20036;-70
2023/01/17 10:12:58;;;;;;;7.65;1.30;;;6.90;99.90;;;;;;5080838;28;20040;-72
2023/01/17 10:15:47;;;;;;;6.10;0.93;;;7.00;99.90;;;;;;5079264;28;20025;-74
2023/01/17 10:18:27;;;;;;;5.13;1.20;;;7.00;99.90;;;;;;5081252;28;20029;-72
2023/01/17 10:21:21;;;;;;;5.60;1.08;;;7.10;99.90;;;;;;5081681;28;20064;-72
2023/01/17 10:24:15;;;;;;;3.80;0.60;;;7.10;99.90;;;;;;5077106;28;20045;-72
2023/01/17 10:26:44;;;;;;;6.82;1.05;;;7.20;99.90;;;;;;5078020;28;20036;-69
2023/01/17 10:29:17;;;;;;;8.95;0.93;;;7.30;99.90;;;;;;5078813;28;20028;-70
2023/01/17 10:31:50;;;;;;;3.63;0.88;;;7.30;99.90;;;;;;5075304;28;20092;-72
2023/01/17 10:34:26;;;;;;;3.70;1.00;;;7.50;99.90;;;;;;5079462;28;20060;-72
2023/01/17 10:37:44;;;;;;;7.40;1.13;;;7.70;99.90;;;;;;5079691;28;20037;-72
2023/01/17 10:40:23;;;;;;;3.15;0.77;;;8.00;99.90;;;;;;5070755;28;20074;-72
2023/01/17 10:43:11;;;;;;;10.68;1.33;;;8.00;99.90;;;;;;5080046;28;20036;-73
2023/01/17 10:45:50;;;;;;;2.45;1.05;;;8.20;99.90;;;;;;5079261;28;20033;-74
2023/01/17 10:48:39;;;;;;;4.25;1.42;;;8.20;99.90;;;;;;5078274;28;20060;-73
2023/01/17 10:51:48;;;;;;;5.20;0.98;;;8.30;99.90;;;;;;5075933;28;20044;-73
2023/01/17 10:54:41;;;;;;;5.43;1.02;;;8.50;99.90;;;;;;5079562;28;20039;-72
2023/01/17 10:57:27;;;;;;;5.03;1.02;;;8.50;99.90;;;;;;5078098;28;20454;-71
2023/01/17 10:59:58;;;;;;;4.25;1.60;;;8.20;99.90;;;;;;5078603;28;20047;-71
2023/01/17 11:02:31;;;;;;;6.80;1.13;;;8.00;99.90;;;;;;5080145;28;20041;-73
2023/01/17 11:05:08;;;;;;;6.85;1.17;;;7.90;99.90;;;;;;5081983;28;20477;-72
2023/01/17 11:07:34;;;;;;;11.55;1.35;;;8.00;99.90;;;;;;5079951;28;20126;-77
2023/01/17 11:09:59;;;;;;;5.75;1.45;;;8.20;99.90;;;;;;5079459;28;20558;-76
2023/01/17 11:12:53;;;;;;;4.85;1.15;;;8.20;99.90;;;;;;5082688;28;20128;-73
2023/01/17 11:15:24;;;;;;;5.75;1.13;;;8.40;99.90;;;;;;5084515;28;20048;-71
2023/01/17 11:17:59;;;;;;;10.20;1.23;;;8.60;99.90;;;;;;5079838;28;20028;-74
2023/01/17 11:20:34;;;;;;;5.10;1.20;;;8.80;99.90;;;;;;5078917;28;20029;-75
2023/01/17 11:23:05;;;;;;;;;;;8.90;99.90;;;;;;5079012;28;20421;-73
2023/01/17 11:25:33;;;;;;;6.25;1.23;;;9.30;99.90;;;;;;5083117;28;19912;-77
2023/01/17 11:28:29;;;;;;;8.70;1.08;;;9.30;99.90;;;;;;5080652;28;20054;-74
2023/01/17 11:31:06;;;;;;;5.50;1.25;;;9.90;99.90;;;;;;5080203;28;20040;-75
2023/01/17 11:33:34;;;;;;;8.73;1.38;;;10.20;99.90;;;;;;5082507;28;20028;-71
2023/01/17 11:35:59;;;;;;;6.82;1.23;;;10.10;99.90;;;;;;5084519;28;20032;-74
2023/01/17 11:38:25;;;;;;;2.75;0.90;;;10.10;99.90;;;;;;5082143;28;20021;-74
2023/01/17 11:41:18;;;;;;;4.10;1.20;;;10.20;99.90;;;;;;5082975;28;20084;-76
2023/01/17 11:43:53;;;;;;;8.00;1.25;;;10.20;99.90;;;;;;5080328;28;20040;-73
2023/01/17 11:46:19;;;;;;;7.43;1.20;;;10.10;99.90;;;;;;5080472;28;20080;-72
2023/01/17 11:48:54;;;;;;;6.00;1.15;;;10.00;99.90;;;;;;5078777;28;20040;-74
2023/01/17 11:51:23;;;;;;;;;;;10.10;99.90;;;;;;5099429;28;20032;-75
2023/01/17 11:53:48;;;;;;;5.20;1.23;;;10.10;99.90;;;;;;5081919;28;19934;-72
2023/01/17 11:56:21;;;;;;;6.53;1.25;;;10.20;99.90;;;;;;5075031;28;20055;-72
2023/01/17 11:58:47;;;;;;;6.00;1.05;;;10.50;99.90;;;;;;5081088;28;20066;-73
2023/01/17 12:01:16;;;;;;;9.35;0.98;;;10.70;99.90;;;;;;5081540;28;20020;-73
2023/01/17 12:04:06;;;;;;;3.28;1.00;;;10.70;99.90;;;;;;5079070;28;20035;-75
2023/01/17 12:07:01;;;;;;;5.00;1.20;;;10.80;99.90;;;;;;5081767;28;20047;-74
2023/01/17 12:09:36;;;;;;;7.10;1.05;;;10.90;99.90;;;;;;5082022;28;20020;-72
2023/01/17 12:15:05;;;;;;;6.20;1.38;;;10.70;99.90;;;;;;5081793;28;20082;-72
2023/01/17 12:17:42;;;;;;;3.75;0.90;;;10.50;99.90;;;;;;5081104;28;20067;-70
2023/01/17 12:20:20;;;;;;;5.82;1.05;;;10.10;99.90;;;;;;5080226;28;20119;-74
2023/01/17 12:22:48;;;;;;;5.50;0.98;;;9.90;99.90;;;;;;5082169;28;20048;-72
2023/01/17 12:25:41;;;;;;;5.13;1.17;;;9.80;99.90;;;;;;5080130;28;20029;-70
2023/01/17 12:28:25;;;;;;;3.40;0.90;;;10.00;99.90;;;;;;5080878;28;20035;-74
2023/01/17 12:31:10;;;;;;;3.37;0.90;;;9.70;99.90;;;;;;5081946;28;20032;-73
2023/01/17 12:33:45;;;;;;;4.32;1.20;;;9.80;99.90;;;;;;5082516;28;20298;-72
2023/01/17 12:36:31;;;;;;;6.45;1.00;;;9.80;99.90;;;;;;5081324;28;20032;-71
2023/01/17 12:39:04;;;;;;;6.10;1.05;;;9.50;99.90;;;;;;5082645;28;20036;-73
2023/01/17 12:41:43;;;;;;;2.40;0.85;;;8.90;99.90;;;;;;5081312;28;20037;-72
2023/01/17 12:44:12;;;;;;;6.05;1.15;;;8.20;99.90;;;;;;5082425;28;20016;-73
2023/01/17 12:46:56;;;;;;;7.68;1.45;;;7.70;99.90;;;;;;5082626;28;20025;-71
2023/01/17 12:49:27;;;;;;;7.30;1.40;;;7.50;99.90;;;;;;5082807;28;20024;-72
2023/01/17 12:52:03;;;;;;;3.78;1.35;;;8.10;99.90;;;;;;5082259;28;20020;-70
2023/01/17 12:54:40;;;;;;;3.50;0.88;;;8.80;99.90;;;;;;5081737;28;20031;-73
2023/01/17 12:57:17;;;;;;;5.18;2.20;;;9.40;99.90;;;;;;5080518;28;20040;-74
2023/01/17 12:59:58;;;;;;;4.30;2.40;;;9.60;99.90;;;;;;5081982;28;20012;-71
2023/01/17 13:02:57;;;;;;;7.90;2.20;;;9.70;99.90;;;;;;5080841;28;20074;-74
2023/01/17 13:05:37;;;;;;;6.75;3.10;;;9.90;99.90;;;;;;5082199;28;20028;-73
2023/01/17 13:08:18;;;;;;;4.50;1.80;;;9.60;99.90;;;;;;5081991;28;20558;-69
2023/01/17 13:11:13;;;;;;;6.90;2.05;;;9.20;99.90;;;;;;5082393;28;20021;-73
2023/01/17 13:13:40;;;;;;;5.07;1.33;;;9.30;99.90;;;;;;5081588;28;20089;-71
2023/01/17 13:16:34;;;;;;;5.72;1.20;;;9.80;99.90;;;;;;5080408;28;20074;-71
2023/01/17 13:19:10;;;;;;;3.50;0.95;;;9.80;99.90;;;;;;5081818;28;20095;-72
2023/01/17 13:21:35;;;;;;;7.65;0.90;;;9.20;99.90;;;;;;5079928;28;20056;-73
2023/01/17 13:24:20;;;;;;;2.95;1.17;;;9.00;99.90;;;;;;5080127;28;20027;-71
2023/01/17 13:27:01;;;;;;;4.20;1.10;;;9.10;99.90;;;;;;5081411;28;20024;-75
2023/01/17 13:29:45;;;;;;;6.03;1.50;;;9.30;99.90;;;;;;5081609;28;20021;-76
2023/01/17 13:32:45;;;;;;;4.28;1.17;;;9.70;99.90;;;;;;5080138;28;20024;-71
2023/01/17 13:35:20;;;;;;;7.60;1.80;;;10.00;99.90;;;;;;5079067;28;20032;-72
2023/01/17 13:38:15;;;;;;;3.75;1.05;;;9.50;99.90;;;;;;5081017;28;20104;-74
2023/01/17 13:40:57;;;;;;;5.88;1.50;;;9.10;99.90;;;;;;5081558;28;20035;-72
2023/01/17 13:43:32;;;;;;;6.78;1.10;;;8.30;99.90;;;;;;5080104;28;20054;-74
2023/01/17 13:46:01;;;;;;;8.73;1.30;;;7.80;99.90;;;;;;5079978;28;20032;-74
2023/01/17 13:48:30;;;;;;;7.43;1.50;;;7.40;99.90;;;;;;5080243;28;20086;-72
2023/01/17 13:51:01;;;;;;;7.78;1.52;;;7.10;99.90;;;;;;5077506;28;20070;-71
2023/01/17 13:53:35;;;;;;;8.38;2.08;;;7.00;99.90;;;;;;5081227;28;20461;-71
2023/01/17 13:56:04;;;;;;;5.07;1.95;;;6.80;99.90;;;;;;5080693;28;20479;-71
2023/01/17 13:58:49;;;;;;;6.72;1.80;;;6.70;99.90;;;;;;5079748;28;20025;-70
2023/01/17 14:01:43;;;;;;;7.72;1.85;;;6.60;99.90;;;;;;5077526;28;20052;-70
2023/01/17 14:04:13;;;;;;;8.48;2.28;;;6.30;99.90;;;;;;5079097;28;20028;-74
2023/01/17 14:06:47;;;;;;;6.18;1.73;;;6.30;99.90;;;;;;5079930;28;20020;-75
2023/01/17 14:09:25;;;;;;;8.07;1.92;;;6.20;99.90;;;;;;5079295;28;20028;-73
2023/01/17 14:11:54;;;;;;;10.45;2.25;;;6.00;99.90;;;;;;5078794;28;20043;-76
2023/01/17 14:14:39;;;;;;;11.43;2.05;;;6.00;99.90;;;;;;5080238;28;20394;-74
2023/01/17 14:17:24;;;;;;;11.10;2.05;;;5.90;99.90;;;;;;5080123;28;20028;-72
2023/01/17 14:20:26;;;;;;;11.35;1.65;;;5.90;99.90;;;;;;5078741;28;20056;-73
2023/01/17 14:22:53;;;;;;;5.45;1.77;;;5.90;99.90;;;;;;5099159;28;20046;-75
2023/01/17 14:25:21;;;;;;;6.10;2.42;;;5.90;99.90;;;;;;5081416;28;20033;-74
2023/01/17 14:28:01;;;;;;;8.13;1.73;;;5.90;99.90;;;;;;5077031;28;20056;-74
2023/01/17 14:30:32;;;;;;;7.43;1.75;;;5.80;99.90;;;;;;5078663;28;20020;-75
2023/01/17 14:32:59;;;;;;;8.18;1.55;;;5.80;99.90;;;;;;5079023;28;20096;-72
2023/01/17 14:35:38;;;;;;;12.57;3.38;;;5.80;99.90;;;;;;5078985;28;20028;-73
2023/01/17 14:38:19;;;;;;;7.82;2.35;;;5.70;99.90;;;;;;5086826;28;20489;-71
2023/01/17 14:40:56;;;;;;;13.82;3.67;;;5.70;99.90;;;;;;5084812;28;20527;-75